sensor_id;sensor_type;location;lat;lon;timestamp;temperature;humidity
4564;DHT22;2294;51.818;8.484;2023-04-01T00:01:00;12.80;99.90
4564;DHT22;2294;51.818;8.484;2023-04-01T00:03:28;12.80;99.90
4564;DHT22;2294;51.818;8.484;2023-04-01T00:05:58;12.80;99.90
4564;DHT22;2294;51.818;8.484;2023-04-01T00:08:26;12.70;99.90
4564;DHT22;2294;51.818;8.484;2023-04-01T00:10:53;12.70;99.90
4564;DHT22;2294;51.818;8.484;2023-04-01T00:13:21;12.70;99.90
4564;DHT22;2294;51.818;8.484;2023-04-01T00:15:48;12.70;99.90
4564;DHT22;2294;51.818;8.484;2023-04-01T00:18:15;12.70;99.90
4564;DHT22;2294;51.818;8.484;2023-04-01T00:20:44;12.70;99.90
4564;DHT22;2294;51.818;8.484;2023-04-01T00:23:12;12.70;99.90
4564;DHT22;2294;51.818;8.484;2023-04-01T00:25:40;12.70;99.90
4564;DHT22;2294;51.818;8.484;2023-04-01T00:28:07;12.60;99.90
4564;DHT22;2294;51.818;8.484;2023-04-01T00:30:35;12.70;99.90
4564;DHT22;2294;51.818;8.484;2023-04-01T00:33:02;12.70;99.90
4564;DHT22;2294;51.818;8.484;2023-04-01T00:35:29;12.70;99.90
4564;DHT22;2294;51.818;8.484;2023-04-01T00:37:57;12.60;99.90
4564;DHT22;2294;51.818;8.484;2023-04-01T00:40:28;12.60;99.90
4564;DHT22;2294;51.818;8.484;2023-04-01T00:42:56;12.60;99.90
4564;DHT22;2294;51.818;8.484;2023-04-01T00:45:28;12.50;99.90
4564;DHT22;2294;51.818;8.484;2023-04-01T00:47:55;11.10;99.90
4564;DHT22;2294;51.818;8.484;2023-04-01T00:50:25;12.50;99.90
4564;DHT22;2294;51.818;8.484;2023-04-01T00:52:53;12.50;99.90
4564;DHT22;2294;51.818;8.484;2023-04-01T00:55:21;12.40;99.90
4564;DHT22;2294;51.818;8.484;2023-04-01T00:57:52;12.40;99.90
4564;DHT22;2294;51.818;8.484;2023-04-01T01:00:20;12.30;99.90
4564;DHT22;2294;51.818;8.484;2023-04-01T01:02:49;12.30;99.90
4564;DHT22;2294;51.818;8.484;2023-04-01T01:05:20;12.20;99.90
4564;DHT22;2294;51.818;8.484;2023-04-01T01:07:55;12.20;99.90
4564;DHT22;2294;51.818;8.484;2023-04-01T01:10:30;12.20;99.90
4564;DHT22;2294;51.818;8.484;2023-04-01T01:13:04;12.20;99.90
4564;DHT22;2294;51.818;8.484;2023-04-01T01:15:36;12.20;99.90
4564;DHT22;2294;51.818;8.484;2023-04-01T01:18:09;12.20;99.90
4564;DHT22;2294;51.818;8.484;2023-04-01T01:21:14;12.10;99.90
4564;DHT22;2294;51.818;8.484;2023-04-01T01:24:08;12.10;99.90
4564;DHT22;2294;51.818;8.484;2023-04-01T01:26:56;12.10;99.90
4564;DHT22;2294;51.818;8.484;2023-04-01T01:33:04;12.10;99.90
4564;DHT22;2294;51.818;8.484;2023-04-01T01:35:36;12.10;99.90
4564;DHT22;2294;51.818;8.484;2023-04-01T01:38:08;12.00;99.90
4564;DHT22;2294;51.818;8.484;2023-04-01T01:40:37;12.00;99.90
4564;DHT22;2294;51.818;8.484;2023-04-01T01:43:09;12.10;99.90
4564;DHT22;2294;51.818;8.484;2023-04-01T01:45:43;12.10;99.90
4564;DHT22;2294;51.818;8.484;2023-04-01T01:48:11;12.10;99.90
4564;DHT22;2294;51.818;8.484;2023-04-01T01:50:41;12.10;99.90
4564;DHT22;2294;51.818;8.484;2023-04-01T01:53:10;12.20;99.90
4564;DHT22;2294;51.818;8.484;2023-04-01T01:55:39;12.20;99.90
4564;DHT22;2294;51.818;8.484;2023-04-01T01:58:11;12.10;99.90
4564;DHT22;2294;51.818;8.484;2023-04-01T02:00:39;12.10;99.90
4564;DHT22;2294;51.818;8.484;2023-04-01T02:03:07;12.20;99.90
4564;DHT22;2294;51.818;8.484;2023-04-01T02:05:35;12.20;99.90
4564;DHT22;2294;51.818;8.484;2023-04-01T02:08:07;12.20;99.90
4564;DHT22;2294;51.818;8.484;2023-04-01T02:10:39;12.10;99.90
4564;DHT22;2294;51.818;8.484;2023-04-01T02:13:11;12.10;99.90
4564;DHT22;2294;51.818;8.484;2023-04-01T02:15:42;12.10;99.90
4564;DHT22;2294;51.818;8.484;2023-04-01T02:18:11;12.10;99.90
4564;DHT22;2294;51.818;8.484;2023-04-01T02:20:41;12.10;99.90
4564;DHT22;2294;51.818;8.484;2023-04-01T02:23:10;12.10;99.90
4564;DHT22;2294;51.818;8.484;2023-04-01T02:25:37;12.00;99.90
4564;DHT22;2294;51.818;8.484;2023-04-01T02:28:07;12.00;99.90
4564;DHT22;2294;51.818;8.484;2023-04-01T02:30:37;12.00;99.90
4564;DHT22;2294;51.818;8.484;2023-04-01T02:33:06;12.00;99.90
4564;DHT22;2294;51.818;8.484;2023-04-01T02:35:34;12.00;99.90
4564;DHT22;2294;51.818;8.484;2023-04-01T02:38:02;12.00;99.90
4564;DHT22;2294;51.818;8.484;2023-04-01T02:40:41;11.90;99.90
4564;DHT22;2294;51.818;8.484;2023-04-01T02:43:08;11.90;99.90
4564;DHT22;2294;51.818;8.484;2023-04-01T02:45:35;11.90;99.90
4564;DHT22;2294;51.818;8.484;2023-04-01T02:48:02;11.80;99.90
4564;DHT22;2294;51.818;8.484;2023-04-01T02:50:29;11.80;99.90
4564;DHT22;2294;51.818;8.484;2023-04-01T02:52:56;11.90;99.90
4564;DHT22;2294;51.818;8.484;2023-04-01T02:55:23;11.80;99.90
4564;DHT22;2294;51.818;8.484;2023-04-01T02:57:51;11.80;99.90
4564;DHT22;2294;51.818;8.484;2023-04-01T03:00:18;11.80;99.90
4564;DHT22;2294;51.818;8.484;2023-04-01T03:02:45;11.80;99.90
4564;DHT22;2294;51.818;8.484;2023-04-01T03:05:12;11.80;99.90
4564;DHT22;2294;51.818;8.484;2023-04-01T03:07:39;11.80;99.90
4564;DHT22;2294;51.818;8.484;2023-04-01T03:10:07;11.80;99.90
4564;DHT22;2294;51.818;8.484;2023-04-01T03:12:34;11.80;99.90
4564;DHT22;2294;51.818;8.484;2023-04-01T03:15:03;11.80;99.90
4564;DHT22;2294;51.818;8.484;2023-04-01T03:17:30;11.80;99.90
4564;DHT22;2294;51.818;8.484;2023-04-01T03:19:57;11.90;99.90
4564;DHT22;2294;51.818;8.484;2023-04-01T03:22:24;11.90;99.90
4564;DHT22;2294;51.818;8.484;2023-04-01T03:24:51;11.90;99.90
4564;DHT22;2294;51.818;8.484;2023-04-01T03:27:18;11.90;99.90
4564;DHT22;2294;51.818;8.484;2023-04-01T03:29:44;11.90;99.90
4564;DHT22;2294;51.818;8.484;2023-04-01T03:32:13;11.90;99.90
4564;DHT22;2294;51.818;8.484;2023-04-01T03:34:40;11.90;99.90
4564;DHT22;2294;51.818;8.484;2023-04-01T03:37:06;12.00;99.90
4564;DHT22;2294;51.818;8.484;2023-04-01T03:39:33;11.90;99.90
4564;DHT22;2294;51.818;8.484;2023-04-01T03:42:00;12.00;99.90
4564;DHT22;2294;51.818;8.484;2023-04-01T03:44:30;12.00;99.90
4564;DHT22;2294;51.818;8.484;2023-04-01T03:46:57;12.00;99.90
4564;DHT22;2294;51.818;8.484;2023-04-01T03:49:25;12.00;99.90
4564;DHT22;2294;51.818;8.484;2023-04-01T03:51:52;12.00;99.90
4564;DHT22;2294;51.818;8.484;2023-04-01T03:54:20;12.00;99.90
4564;DHT22;2294;51.818;8.484;2023-04-01T03:56:47;12.10;99.90
4564;DHT22;2294;51.818;8.484;2023-04-01T03:59:14;12.10;99.90
4564;DHT22;2294;51.818;8.484;2023-04-01T04:01:41;12.00;99.90
4564;DHT22;2294;51.818;8.484;2023-04-01T04:04:10;12.10;99.90
4564;DHT22;2294;51.818;8.484;2023-04-01T04:06:39;12.10;99.90
4564;DHT22;2294;51.818;8.484;2023-04-01T04:09:06;12.10;99.90
4564;DHT22;2294;51.818;8.484;2023-04-01T04:11:33;12.20;99.90
4564;DHT22;2294;51.818;8.484;2023-04-01T04:14:00;12.20;99.90
4564;DHT22;2294;51.818;8.484;2023-04-01T04:16:27;12.20;99.90
4564;DHT22;2294;51.818;8.484;2023-04-01T04:18:54;12.20;99.90
4564;DHT22;2294;51.818;8.484;2023-04-01T04:21:21;12.20;99.90
4564;DHT22;2294;51.818;8.484;2023-04-01T04:23:49;12.20;99.90
4564;DHT22;2294;51.818;8.484;2023-04-01T04:26:17;12.20;99.90
4564;DHT22;2294;51.818;8.484;2023-04-01T04:28:44;12.30;99.90
4564;DHT22;2294;51.818;8.484;2023-04-01T04:31:11;12.30;99.90
4564;DHT22;2294;51.818;8.484;2023-04-01T04:33:38;12.30;99.90
4564;DHT22;2294;51.818;8.484;2023-04-01T04:36:06;12.30;99.90
4564;DHT22;2294;51.818;8.484;2023-04-01T04:38:33;12.30;99.90
4564;DHT22;2294;51.818;8.484;2023-04-01T04:41:01;12.40;99.90
4564;DHT22;2294;51.818;8.484;2023-04-01T04:43:28;12.40;99.90
4564;DHT22;2294;51.818;8.484;2023-04-01T04:45:55;12.40;99.90
4564;DHT22;2294;51.818;8.484;2023-04-01T04:48:21;12.50;99.90
4564;DHT22;2294;51.818;8.484;2023-04-01T04:50:49;12.50;99.90
4564;DHT22;2294;51.818;8.484;2023-04-01T04:53:18;12.50;99.90
4564;DHT22;2294;51.818;8.484;2023-04-01T04:55:46;12.50;99.90
4564;DHT22;2294;51.818;8.484;2023-04-01T04:58:14;12.50;99.90
4564;DHT22;2294;51.818;8.484;2023-04-01T05:00:42;12.60;99.90
4564;DHT22;2294;51.818;8.484;2023-04-01T05:03:10;12.50;99.90
4564;DHT22;2294;51.818;8.484;2023-04-01T05:05:38;12.60;99.90
4564;DHT22;2294;51.818;8.484;2023-04-01T05:08:05;12.60;99.90
4564;DHT22;2294;51.818;8.484;2023-04-01T05:10:32;12.60;99.90
4564;DHT22;2294;51.818;8.484;2023-04-01T05:12:59;12.60;99.90
4564;DHT22;2294;51.818;8.484;2023-04-01T05:15:28;12.70;99.90
4564;DHT22;2294;51.818;8.484;2023-04-01T05:17:55;12.60;99.90
4564;DHT22;2294;51.818;8.484;2023-04-01T05:20:22;12.60;99.90
4564;DHT22;2294;51.818;8.484;2023-04-01T05:22:49;12.70;99.90
4564;DHT22;2294;51.818;8.484;2023-04-01T05:25:16;12.60;99.90
4564;DHT22;2294;51.818;8.484;2023-04-01T05:27:44;12.70;99.90
4564;DHT22;2294;51.818;8.484;2023-04-01T05:30:11;12.70;99.90
4564;DHT22;2294;51.818;8.484;2023-04-01T05:32:40;12.70;99.90
4564;DHT22;2294;51.818;8.484;2023-04-01T05:35:08;12.70;99.90
4564;DHT22;2294;51.818;8.484;2023-04-01T05:37:36;12.80;99.90
4564;DHT22;2294;51.818;8.484;2023-04-01T05:40:04;12.80;99.90
4564;DHT22;2294;51.818;8.484;2023-04-01T05:42:31;12.80;99.90
4564;DHT22;2294;51.818;8.484;2023-04-01T05:44:58;12.80;99.90
4564;DHT22;2294;51.818;8.484;2023-04-01T05:47:25;12.70;99.90
4564;DHT22;2294;51.818;8.484;2023-04-01T05:49:54;12.70;99.90
4564;DHT22;2294;51.818;8.484;2023-04-01T05:52:21;12.80;99.90
4564;DHT22;2294;51.818;8.484;2023-04-01T05:54:49;12.80;99.90
4564;DHT22;2294;51.818;8.484;2023-04-01T05:57:15;12.90;99.90
4564;DHT22;2294;51.818;8.484;2023-04-01T05:59:42;13.00;99.90
4564;DHT22;2294;51.818;8.484;2023-04-01T06:02:10;13.10;99.90
4564;DHT22;2294;51.818;8.484;2023-04-01T06:04:39;13.10;99.90
4564;DHT22;2294;51.818;8.484;2023-04-01T06:07:13;13.20;99.90
4564;DHT22;2294;51.818;8.484;2023-04-01T06:09:41;13.20;99.90
4564;DHT22;2294;51.818;8.484;2023-04-01T06:12:29;13.20;99.90
4564;DHT22;2294;51.818;8.484;2023-04-01T06:15:13;13.30;99.90
4564;DHT22;2294;51.818;8.484;2023-04-01T06:17:58;13.20;99.90
4564;DHT22;2294;51.818;8.484;2023-04-01T06:20:34;13.30;99.90
4564;DHT22;2294;51.818;8.484;2023-04-01T06:23:29;13.20;99.90
4564;DHT22;2294;51.818;8.484;2023-04-01T06:26:09;13.20;99.90
4564;DHT22;2294;51.818;8.484;2023-04-01T06:29:08;13.30;99.90
4564;DHT22;2294;51.818;8.484;2023-04-01T06:32:02;13.30;99.90
4564;DHT22;2294;51.818;8.484;2023-04-01T06:34:55;13.30;99.90
4564;DHT22;2294;51.818;8.484;2023-04-01T06:37:39;13.40;99.90
4564;DHT22;2294;51.818;8.484;2023-04-01T06:40:43;13.40;99.90
4564;DHT22;2294;51.818;8.484;2023-04-01T06:43:16;13.50;99.90
4564;DHT22;2294;51.818;8.484;2023-04-01T06:45:51;13.60;99.90
4564;DHT22;2294;51.818;8.484;2023-04-01T06:48:36;13.60;99.90
4564;DHT22;2294;51.818;8.484;2023-04-01T06:51:14;13.70;99.90
4564;DHT22;2294;51.818;8.484;2023-04-01T06:53:52;13.90;99.90
4564;DHT22;2294;51.818;8.484;2023-04-01T06:56:25;13.90;99.90
4564;DHT22;2294;51.818;8.484;2023-04-01T06:58:55;14.10;99.90
4564;DHT22;2294;51.818;8.484;2023-04-01T07:01:28;14.00;99.90
4564;DHT22;2294;51.818;8.484;2023-04-01T07:03:58;14.10;99.90
4564;DHT22;2294;51.818;8.484;2023-04-01T07:06:30;14.00;99.90
4564;DHT22;2294;51.818;8.484;2023-04-01T07:09:00;14.10;99.90
4564;DHT22;2294;51.818;8.484;2023-04-01T07:11:31;14.10;99.90
4564;DHT22;2294;51.818;8.484;2023-04-01T07:14:03;14.10;99.90
4564;DHT22;2294;51.818;8.484;2023-04-01T07:16:33;14.10;99.90
4564;DHT22;2294;51.818;8.484;2023-04-01T07:19:04;14.20;99.90
4564;DHT22;2294;51.818;8.484;2023-04-01T07:21:36;14.30;99.90
4564;DHT22;2294;51.818;8.484;2023-04-01T07:24:09;14.30;99.90
4564;DHT22;2294;51.818;8.484;2023-04-01T07:26:41;14.30;99.90
4564;DHT22;2294;51.818;8.484;2023-04-01T07:29:10;14.30;99.90
4564;DHT22;2294;51.818;8.484;2023-04-01T07:31:49;14.40;99.90
4564;DHT22;2294;51.818;8.484;2023-04-01T07:34:23;14.30;99.90
4564;DHT22;2294;51.818;8.484;2023-04-01T07:36:56;14.30;99.90
4564;DHT22;2294;51.818;8.484;2023-04-01T07:39:35;14.40;99.90
4564;DHT22;2294;51.818;8.484;2023-04-01T07:42:11;14.30;99.90
4564;DHT22;2294;51.818;8.484;2023-04-01T07:44:43;14.40;99.90
4564;DHT22;2294;51.818;8.484;2023-04-01T07:47:23;14.50;99.90
4564;DHT22;2294;51.818;8.484;2023-04-01T07:50:02;14.50;99.90
4564;DHT22;2294;51.818;8.484;2023-04-01T07:52:37;14.60;99.90
4564;DHT22;2294;51.818;8.484;2023-04-01T07:55:10;14.70;99.90
4564;DHT22;2294;51.818;8.484;2023-04-01T07:57:48;14.80;99.90
4564;DHT22;2294;51.818;8.484;2023-04-01T08:00:20;15.00;99.90
4564;DHT22;2294;51.818;8.484;2023-04-01T08:03:10;14.90;99.90
4564;DHT22;2294;51.818;8.484;2023-04-01T08:05:51;14.90;99.90
4564;DHT22;2294;51.818;8.484;2023-04-01T08:08:27;14.90;99.90
4564;DHT22;2294;51.818;8.484;2023-04-01T08:11:00;15.00;99.90
4564;DHT22;2294;51.818;8.484;2023-04-01T08:13:36;14.90;99.90
4564;DHT22;2294;51.818;8.484;2023-04-01T08:16:11;15.00;99.90
4564;DHT22;2294;51.818;8.484;2023-04-01T08:18:50;14.90;99.90
4564;DHT22;2294;51.818;8.484;2023-04-01T08:21:23;14.90;99.90
4564;DHT22;2294;51.818;8.484;2023-04-01T08:23:52;15.00;99.90
4564;DHT22;2294;51.818;8.484;2023-04-01T08:26:28;14.70;99.90
4564;DHT22;2294;51.818;8.484;2023-04-01T08:29:01;14.70;99.90
4564;DHT22;2294;51.818;8.484;2023-04-01T08:31:33;14.70;99.90
4564;DHT22;2294;51.818;8.484;2023-04-01T08:34:03;14.80;99.90
4564;DHT22;2294;51.818;8.484;2023-04-01T08:36:34;14.70;99.90
4564;DHT22;2294;51.818;8.484;2023-04-01T08:39:05;14.80;99.90
4564;DHT22;2294;51.818;8.484;2023-04-01T08:41:48;14.70;99.90
4564;DHT22;2294;51.818;8.484;2023-04-01T08:44:30;14.50;99.90
4564;DHT22;2294;51.818;8.484;2023-04-01T08:47:13;14.50;99.90
4564;DHT22;2294;51.818;8.484;2023-04-01T08:50:06;14.30;99.90
4564;DHT22;2294;51.818;8.484;2023-04-01T08:52:42;14.40;99.90
4564;DHT22;2294;51.818;8.484;2023-04-01T08:55:35;14.00;99.90
4564;DHT22;2294;51.818;8.484;2023-04-01T09:01:17;13.80;99.90
4564;DHT22;2294;51.818;8.484;2023-04-01T09:04:14;13.80;99.90
4564;DHT22;2294;51.818;8.484;2023-04-01T09:06:56;13.90;99.90
4564;DHT22;2294;51.818;8.484;2023-04-01T09:12:37;14.40;99.90
4564;DHT22;2294;51.818;8.484;2023-04-01T09:18:29;14.50;99.90
4564;DHT22;2294;51.818;8.484;2023-04-01T09:24:26;14.70;99.90
4564;DHT22;2294;51.818;8.484;2023-04-01T09:27:08;14.70;99.90
4564;DHT22;2294;51.818;8.484;2023-04-01T09:29:59;14.40;99.90
4564;DHT22;2294;51.818;8.484;2023-04-01T09:35:46;14.50;99.90
4564;DHT22;2294;51.818;8.484;2023-04-01T09:38:29;14.20;99.90
4564;DHT22;2294;51.818;8.484;2023-04-01T09:40:57;14.20;99.90
4564;DHT22;2294;51.818;8.484;2023-04-01T09:43:28;14.10;99.90
4564;DHT22;2294;51.818;8.484;2023-04-01T09:46:27;14.00;99.90
4564;DHT22;2294;51.818;8.484;2023-04-01T09:52:26;14.10;99.90
4564;DHT22;2294;51.818;8.484;2023-04-01T09:55:04;14.20;99.90
4564;DHT22;2294;51.818;8.484;2023-04-01T10:01:16;14.60;99.90
4564;DHT22;2294;51.818;8.484;2023-04-01T10:04:17;14.60;99.90
4564;DHT22;2294;51.818;8.484;2023-04-01T10:16:40;15.10;99.90
4564;DHT22;2294;51.818;8.484;2023-04-01T10:25:34;15.10;99.90
4564;DHT22;2294;51.818;8.484;2023-04-01T10:28:36;15.10;99.90
4564;DHT22;2294;51.818;8.484;2023-04-01T10:34:42;15.00;99.90
4564;DHT22;2294;51.818;8.484;2023-04-01T10:37:29;15.10;99.90
4564;DHT22;2294;51.818;8.484;2023-04-01T10:43:46;15.30;99.90
4564;DHT22;2294;51.818;8.484;2023-04-01T10:49:37;15.20;99.90
4564;DHT22;2294;51.818;8.484;2023-04-01T10:52:40;15.20;99.90
4564;DHT22;2294;51.818;8.484;2023-04-01T11:01:53;15.00;99.90
4564;DHT22;2294;51.818;8.484;2023-04-01T11:04:57;14.90;99.90
4564;DHT22;2294;51.818;8.484;2023-04-01T11:14:16;14.90;99.90
4564;DHT22;2294;51.818;8.484;2023-04-01T11:17:22;15.00;99.90
4564;DHT22;2294;51.818;8.484;2023-04-01T11:20:19;15.10;99.90
4564;DHT22;2294;51.818;8.484;2023-04-01T11:23:11;15.20;99.90
4564;DHT22;2294;51.818;8.484;2023-04-01T11:25:54;15.40;99.90
4564;DHT22;2294;51.818;8.484;2023-04-01T11:28:38;15.40;99.90
4564;DHT22;2294;51.818;8.484;2023-04-01T11:31:35;15.70;99.90
4564;DHT22;2294;51.818;8.484;2023-04-01T11:34:14;15.70;99.90
4564;DHT22;2294;51.818;8.484;2023-04-01T11:36:52;15.50;99.90
4564;DHT22;2294;51.818;8.484;2023-04-01T11:39:29;15.50;99.90
4564;DHT22;2294;51.818;8.484;2023-04-01T11:42:08;15.50;99.90
4564;DHT22;2294;51.818;8.484;2023-04-01T11:44:41;15.50;99.90
4564;DHT22;2294;51.818;8.484;2023-04-01T11:47:22;15.50;99.90
4564;DHT22;2294;51.818;8.484;2023-04-01T11:50:10;15.30;99.90
4564;DHT22;2294;51.818;8.484;2023-04-01T11:52:57;15.20;99.90
4564;DHT22;2294;51.818;8.484;2023-04-01T11:55:35;15.30;99.90
4564;DHT22;2294;51.818;8.484;2023-04-01T12:01:30;15.60;99.90
4564;DHT22;2294;51.818;8.484;2023-04-01T12:07:13;15.40;99.90
4564;DHT22;2294;51.818;8.484;2023-04-01T12:09:47;15.60;99.90
4564;DHT22;2294;51.818;8.484;2023-04-01T12:12:23;15.50;99.90
4564;DHT22;2294;51.818;8.484;2023-04-01T12:15:02;15.60;99.90
4564;DHT22;2294;51.818;8.484;2023-04-01T12:17:38;15.60;99.90
4564;DHT22;2294;51.818;8.484;2023-04-01T12:20:25;15.30;99.90
4564;DHT22;2294;51.818;8.484;2023-04-01T12:23:07;15.40;99.90
4564;DHT22;2294;51.818;8.484;2023-04-01T12:25:54;15.50;99.90
4564;DHT22;2294;51.818;8.484;2023-04-01T12:28:32;15.30;99.90
4564;DHT22;2294;51.818;8.484;2023-04-01T12:31:15;15.60;99.90
4564;DHT22;2294;51.818;8.484;2023-04-01T12:33:55;15.40;99.90
4564;DHT22;2294;51.818;8.484;2023-04-01T12:36:33;15.40;99.90
4564;DHT22;2294;51.818;8.484;2023-04-01T12:39:22;15.50;99.90
4564;DHT22;2294;51.818;8.484;2023-04-01T12:42:00;15.80;99.90
4564;DHT22;2294;51.818;8.484;2023-04-01T12:44:38;15.70;99.90
4564;DHT22;2294;51.818;8.484;2023-04-01T12:47:31;15.80;99.90
4564;DHT22;2294;51.818;8.484;2023-04-01T12:50:34;15.90;99.90
4564;DHT22;2294;51.818;8.484;2023-04-01T12:53:20;16.10;99.90
4564;DHT22;2294;51.818;8.484;2023-04-01T12:55:51;15.90;99.90
4564;DHT22;2294;51.818;8.484;2023-04-01T12:58:39;15.70;99.90
4564;DHT22;2294;51.818;8.484;2023-04-01T13:01:28;15.60;99.90
4564;DHT22;2294;51.818;8.484;2023-04-01T13:04:25;15.50;99.90
4564;DHT22;2294;51.818;8.484;2023-04-01T13:10:13;15.60;99.90
4564;DHT22;2294;51.818;8.484;2023-04-01T13:13:07;15.70;99.90
4564;DHT22;2294;51.818;8.484;2023-04-01T13:15:39;15.60;99.90
4564;DHT22;2294;51.818;8.484;2023-04-01T13:18:20;15.50;99.90
4564;DHT22;2294;51.818;8.484;2023-04-01T13:20:56;15.70;99.90
4564;DHT22;2294;51.818;8.484;2023-04-01T13:23:41;15.40;99.90
4564;DHT22;2294;51.818;8.484;2023-04-01T13:26:19;15.40;99.90
4564;DHT22;2294;51.818;8.484;2023-04-01T13:28:56;15.40;99.90
4564;DHT22;2294;51.818;8.484;2023-04-01T13:31:33;15.40;99.90
4564;DHT22;2294;51.818;8.484;2023-04-01T13:34:14;15.40;99.90
4564;DHT22;2294;51.818;8.484;2023-04-01T13:36:54;15.30;99.90
4564;DHT22;2294;51.818;8.484;2023-04-01T13:39:32;15.20;99.90
4564;DHT22;2294;51.818;8.484;2023-04-01T13:42:13;15.20;99.90
4564;DHT22;2294;51.818;8.484;2023-04-01T13:44:46;15.50;99.90
4564;DHT22;2294;51.818;8.484;2023-04-01T13:47:28;15.10;99.90
4564;DHT22;2294;51.818;8.484;2023-04-01T13:50:15;15.10;99.90
4564;DHT22;2294;51.818;8.484;2023-04-01T13:55:54;15.10;99.90
4564;DHT22;2294;51.818;8.484;2023-04-01T13:58:42;15.20;99.90
4564;DHT22;2294;51.818;8.484;2023-04-01T14:01:13;15.10;99.90
4564;DHT22;2294;51.818;8.484;2023-04-01T14:07:03;15.20;99.90
4564;DHT22;2294;51.818;8.484;2023-04-01T14:09:47;15.20;99.90
4564;DHT22;2294;51.818;8.484;2023-04-01T14:12:28;15.50;99.90
4564;DHT22;2294;51.818;8.484;2023-04-01T14:15:14;15.50;99.90
4564;DHT22;2294;51.818;8.484;2023-04-01T14:17:56;15.40;99.90
4564;DHT22;2294;51.818;8.484;2023-04-01T14:20:32;15.20;99.90
4564;DHT22;2294;51.818;8.484;2023-04-01T14:23:45;15.30;99.90
4564;DHT22;2294;51.818;8.484;2023-04-01T14:26:30;15.30;99.90
4564;DHT22;2294;51.818;8.484;2023-04-01T14:29:07;15.20;99.90
4564;DHT22;2294;51.818;8.484;2023-04-01T14:31:46;15.30;99.90
4564;DHT22;2294;51.818;8.484;2023-04-01T14:34:29;15.50;99.90
4564;DHT22;2294;51.818;8.484;2023-04-01T14:37:13;15.50;99.90
4564;DHT22;2294;51.818;8.484;2023-04-01T14:40:14;15.50;99.90
4564;DHT22;2294;51.818;8.484;2023-04-01T14:43:01;15.80;99.90
4564;DHT22;2294;51.818;8.484;2023-04-01T14:46:05;16.00;99.90
4564;DHT22;2294;51.818;8.484;2023-04-01T14:48:50;16.40;99.90
4564;DHT22;2294;51.818;8.484;2023-04-01T14:51:23;16.50;99.90
4564;DHT22;2294;51.818;8.484;2023-04-01T14:54:02;16.60;99.90
4564;DHT22;2294;51.818;8.484;2023-04-01T14:56:38;16.00;99.90
4564;DHT22;2294;51.818;8.484;2023-04-01T14:59:10;16.20;99.90
4564;DHT22;2294;51.818;8.484;2023-04-01T15:01:43;16.30;99.90
4564;DHT22;2294;51.818;8.484;2023-04-01T15:04:37;16.20;99.90
4564;DHT22;2294;51.818;8.484;2023-04-01T15:07:25;15.90;99.90
4564;DHT22;2294;51.818;8.484;2023-04-01T15:09:59;16.00;99.90
4564;DHT22;2294;51.818;8.484;2023-04-01T15:12:32;16.00;99.90
4564;DHT22;2294;51.818;8.484;2023-04-01T15:15:19;16.00;99.90
4564;DHT22;2294;51.818;8.484;2023-04-01T15:17:55;15.90;99.90
4564;DHT22;2294;51.818;8.484;2023-04-01T15:23:34;15.70;99.90
4564;DHT22;2294;51.818;8.484;2023-04-01T15:26:22;15.60;99.90
4564;DHT22;2294;51.818;8.484;2023-04-01T15:29:06;15.50;99.90
4564;DHT22;2294;51.818;8.484;2023-04-01T15:31:42;15.40;99.90
4564;DHT22;2294;51.818;8.484;2023-04-01T15:34:29;15.20;99.90
4564;DHT22;2294;51.818;8.484;2023-04-01T15:39:43;15.20;99.90
4564;DHT22;2294;51.818;8.484;2023-04-01T15:42:22;15.30;99.90
4564;DHT22;2294;51.818;8.484;2023-04-01T15:45:01;15.30;99.90
4564;DHT22;2294;51.818;8.484;2023-04-01T15:47:38;15.30;99.90
4564;DHT22;2294;51.818;8.484;2023-04-01T15:50:29;15.50;99.90
4564;DHT22;2294;51.818;8.484;2023-04-01T15:53:09;15.30;99.90
4564;DHT22;2294;51.818;8.484;2023-04-01T15:55:47;15.30;99.90
4564;DHT22;2294;51.818;8.484;2023-04-01T15:58:36;15.30;99.90
4564;DHT22;2294;51.818;8.484;2023-04-01T16:01:14;15.20;99.90
4564;DHT22;2294;51.818;8.484;2023-04-01T16:03:50;15.30;99.90
4564;DHT22;2294;51.818;8.484;2023-04-01T16:06:37;15.10;99.90
4564;DHT22;2294;51.818;8.484;2023-04-01T16:09:18;15.00;99.90
4564;DHT22;2294;51.818;8.484;2023-04-01T16:11:53;15.10;99.90
4564;DHT22;2294;51.818;8.484;2023-04-01T16:14:34;15.10;99.90
4564;DHT22;2294;51.818;8.484;2023-04-01T16:17:27;15.00;99.90
4564;DHT22;2294;51.818;8.484;2023-04-01T16:19:59;15.00;99.90
4564;DHT22;2294;51.818;8.484;2023-04-01T16:22:32;15.00;99.90
4564;DHT22;2294;51.818;8.484;2023-04-01T16:25:17;15.10;99.90
4564;DHT22;2294;51.818;8.484;2023-04-01T16:27:52;15.00;99.90
4564;DHT22;2294;51.818;8.484;2023-04-01T16:30:26;15.10;99.90
4564;DHT22;2294;51.818;8.484;2023-04-01T16:33:02;15.20;99.90
4564;DHT22;2294;51.818;8.484;2023-04-01T16:35:37;15.30;99.90
4564;DHT22;2294;51.818;8.484;2023-04-01T16:38:13;15.30;99.90
4564;DHT22;2294;51.818;8.484;2023-04-01T16:40:45;15.40;99.90
4564;DHT22;2294;51.818;8.484;2023-04-01T16:43:21;15.40;99.90
4564;DHT22;2294;51.818;8.484;2023-04-01T16:46:15;15.50;99.90
4564;DHT22;2294;51.818;8.484;2023-04-01T16:48:57;15.50;99.90
4564;DHT22;2294;51.818;8.484;2023-04-01T16:51:30;15.60;99.90
4564;DHT22;2294;51.818;8.484;2023-04-01T16:54:05;15.60;99.90
4564;DHT22;2294;51.818;8.484;2023-04-01T16:56:39;15.70;99.90
4564;DHT22;2294;51.818;8.484;2023-04-01T16:59:18;15.80;99.90
4564;DHT22;2294;51.818;8.484;2023-04-01T17:01:52;15.80;99.90
4564;DHT22;2294;51.818;8.484;2023-04-01T17:04:26;15.90;99.90
4564;DHT22;2294;51.818;8.484;2023-04-01T17:07:01;15.80;99.90
4564;DHT22;2294;51.818;8.484;2023-04-01T17:09:53;15.80;99.90
4564;DHT22;2294;51.818;8.484;2023-04-01T17:12:30;15.90;99.90
4564;DHT22;2294;51.818;8.484;2023-04-01T17:15:05;15.90;99.90
4564;DHT22;2294;51.818;8.484;2023-04-01T17:17:44;16.00;99.90
4564;DHT22;2294;51.818;8.484;2023-04-01T17:20:31;16.10;99.90
4564;DHT22;2294;51.818;8.484;2023-04-01T17:23:03;16.10;99.90
4564;DHT22;2294;51.818;8.484;2023-04-01T17:25:46;16.20;99.90
4564;DHT22;2294;51.818;8.484;2023-04-01T17:28:27;16.20;99.90
4564;DHT22;2294;51.818;8.484;2023-04-01T17:31:07;16.30;99.90
4564;DHT22;2294;51.818;8.484;2023-04-01T17:33:53;16.30;99.90
4564;DHT22;2294;51.818;8.484;2023-04-01T17:36:35;16.30;99.90
4564;DHT22;2294;51.818;8.484;2023-04-01T17:39:34;16.30;99.90
4564;DHT22;2294;51.818;8.484;2023-04-01T17:42:06;16.30;99.90
4564;DHT22;2294;51.818;8.484;2023-04-01T17:44:45;16.40;99.90
4564;DHT22;2294;51.818;8.484;2023-04-01T17:47:25;16.50;99.90
4564;DHT22;2294;51.818;8.484;2023-04-01T17:50:02;16.50;99.90
4564;DHT22;2294;51.818;8.484;2023-04-01T17:52:38;16.60;99.90
4564;DHT22;2294;51.818;8.484;2023-04-01T17:58:07;16.70;99.90
4564;DHT22;2294;51.818;8.484;2023-04-01T18:00:46;16.70;99.90
4564;DHT22;2294;51.818;8.484;2023-04-01T18:03:23;16.60;99.90
4564;DHT22;2294;51.818;8.484;2023-04-01T18:06:00;16.60;99.90
4564;DHT22;2294;51.818;8.484;2023-04-01T18:08:46;16.60;99.90
4564;DHT22;2294;51.818;8.484;2023-04-01T18:11:25;16.80;99.90
4564;DHT22;2294;51.818;8.484;2023-04-01T18:14:22;16.80;99.90
4564;DHT22;2294;51.818;8.484;2023-04-01T18:17:18;16.70;99.90
4564;DHT22;2294;51.818;8.484;2023-04-01T18:20:02;16.80;99.90
4564;DHT22;2294;51.818;8.484;2023-04-01T18:22:39;16.90;99.90
4564;DHT22;2294;51.818;8.484;2023-04-01T18:25:17;16.90;99.90
4564;DHT22;2294;51.818;8.484;2023-04-01T18:27:47;16.90;99.90
4564;DHT22;2294;51.818;8.484;2023-04-01T18:30:17;16.80;99.90